Data for 12/24/2009

Time Sea-Level Adjusted Pressure Absolute Pressure Temperature Relative Humidity Dew Point   
(mb) (inHg) (mb) (inHg) (C) (F) (%) (C) (F)
00:05 1023 30.21 852 25.16 -12.8 8.9 87 -14.6 5.7
00:10 1023 30.21 852 25.16 -12.8 9 86 -14.6 5.7
00:15 1023 30.21 852 25.16 -12.8 9 86 -14.7 5.6
00:20 1023 30.21 852 25.16 -12.8 9.1 86 -14.7 5.5
00:25 1023 30.21 852 25.16 -12.9 8.8 87 -14.6 5.6
00:30 1023 30.21 852 25.16 -12.9 8.8 88 -14.5 5.8
00:35 1023 30.21 852 25.16 -12.8 8.9 87 -14.5 5.9
00:40 1023 30.21 852 25.16 -12.8 8.9 87 -14.5 5.8
00:45 1023 30.21 852 25.16 -12.8 9 88 -14.4 6.2
00:50 1023 30.21 852 25.16 -12.8 9 87 -14.5 5.8
00:55 1023 30.21 852 25.16 -12.9 8.7 88 -14.5 5.9
01:00 1023 30.21 852 25.16 -13 8.7 88 -14.6 5.8
01:05 1023 30.21 852 25.16 -13.1 8.5 89 -14.6 5.8
01:10 1023 30.21 852 25.16 -12.9 8.7 88 -14.5 6
01:15 1023 30.21 852 25.16 -13 8.7 89 -14.4 6
01:20 1023 30.21 852 25.16 -12.8 9 88 -14.5 6
01:25 1023 30.21 852 25.16 -12.8 9 87 -14.5 5.9
01:30 1023 30.21 852 25.16 -12.8 8.9 87 -14.5 5.8
01:35 1023 30.21 852 25.16 -12.9 8.9 88 -14.5 5.9
01:40 1023 30.21 852 25.16 -12.8 9 87 -14.5 6
01:45 1023 30.21 852 25.16 -12.7 9.1 87 -14.4 6.1
01:50 1023 30.21 852 25.16 -12.7 9.1 88 -14.4 6.1
01:55 1023 30.21 852 25.16 -12.8 8.9 88 -14.5 6
02:00 1023 30.21 852 25.16 -12.9 8.9 87 -14.6 5.7
02:05 1023 30.21 852 25.16 -13.1 8.5 88 -14.7 5.5
02:10 1023 30.21 852 25.16 -13.2 8.3 88 -14.8 5.4
02:15 1023 30.21 852 25.16 -13.3 8.1 88 -14.9 5.2
02:20 1023 30.21 852 25.16 -13.6 7.5 89 -15.1 4.9
02:25 1023 30.21 852 25.16 -13.9 7.1 90 -15.2 4.6
02:30 1023 30.21 852 25.16 -14 6.9 90 -15.2 4.6
02:35 1023 30.21 852 25.16 -13.9 6.9 90 -15.2 4.7
02:40 1023 30.21 852 25.16 -14 6.9 90 -15.2 4.6
02:45 1023 30.21 852 25.16 -13.8 7.2 89 -15.2 4.7
02:50 1023 30.21 852 25.16 -13.6 7.5 89 -15.1 4.7
02:55 1023 30.21 852 25.16 -13.6 7.5 87 -15.3 4.5
03:00 1023 30.21 852 25.16 -13.8 7.1 88 -15.4 4.3
03:05 1023 30.21 852 25.16 -14.1 6.7 88 -15.7 3.8
03:10 1023 30.21 852 25.16 -14.4 6 89 -15.9 3.4
03:15 1023 30.21 852 25.16 -14.3 6.2 86 -16.2 2.9
03:20 1022 30.18 852 25.16 -14.7 5.5 93 -15.6 3.9
03:25 1022 30.18 852 25.16 -14.4 6.1 91 -15.6 3.9
03:30 1022 30.18 852 25.16 -14.5 6 87 -16.2 2.8
03:35 1022 30.18 852 25.16 -14.8 5.3 87 -16.6 2.1
03:40 1022 30.18 852 25.16 -14.4 6 89 -15.9 3.4
03:45 1022 30.18 852 25.16 -13.2 8.3 83 -15.4 4.2
03:50 1022 30.18 852 25.16 -12.4 9.7 81 -15 5
03:55 1022 30.18 852 25.16 -12 10.5 79 -14.9 5.2
04:00 1022 30.18 852 25.16 -11.8 10.8 78 -14.9 5.2
04:05 1022 30.18 851 25.13 -11.9 10.5 79 -15 5.1
04:10 1022 30.18 851 25.13 -12.4 9.7 80 -15.1 4.8
04:15 1022 30.18 851 25.13 -12.5 9.5 81 -15.2 4.7
04:20 1022 30.18 851 25.13 -12.9 8.8 83 -15.3 4.5
04:25 1022 30.18 851 25.13 -12.5 9.5 81 -15.1 4.8
04:30 1022 30.18 851 25.13 -12.5 9.4 82 -15.1 4.9
04:35 1022 30.18 851 25.13 -13.2 8.3 82 -15.6 3.8
04:40 1022 30.18 851 25.13 -13.8 7.2 85 -15.8 3.5
04:45 1022 30.18 851 25.13 -13.9 7 86 -15.8 3.6
04:50 1022 30.18 851 25.13 -14 6.7 88 -15.6 3.8
04:55 1022 30.18 851 25.13 -14.4 6.2 85 -16.3 2.6
05:00 1022 30.18 851 25.13 -14.5 5.9 86 -16.4 2.5
05:05 1022 30.18 851 25.13 -14.5 5.9 89 -15.9 3.4
05:10 1022 30.18 851 25.13 -14.2 6.5 88 -15.7 3.7
05:15 1022 30.18 851 25.13 -14.2 6.5 85 -16.2 2.9
05:20 1022 30.18 851 25.13 -14.2 6.5 86 -16 3.2
05:25 1022 30.18 851 25.13 -14.1 6.6 85 -16.2 2.9
05:30 1022 30.18 851 25.13 -14.2 6.5 83 -16.5 2.3
05:35 1022 30.18 851 25.13 -14.4 6.1 83 -16.8 1.8
05:40 1022 30.18 851 25.13 -14.8 5.3 83 -17.1 1.3
05:45 1022 30.18 851 25.13 -15 5 84 -17.1 1.3
05:50 1022 30.18 851 25.13 -15 5.1 84 -17.1 1.1
05:55 1022 30.18 851 25.13 -15.1 4.8 83 -17.4 0.7
06:00 1022 30.18 851 25.13 -15.2 4.6 85 -17.2 1.1
06:05 1022 30.18 851 25.13 -14.8 5.4 84 -16.9 1.5
06:10 1022 30.18 851 25.13 -14.6 5.7 83 -16.9 1.7
06:15 1022 30.18 851 25.13 -14.6 5.7 82 -17 1.5
06:20 1022 30.18 851 25.13 -14.6 5.8 82 -17 1.5
06:25 1022 30.18 851 25.13 -14.5 5.9 82 -17 1.4
06:30 1022 30.18 851 25.13 -14.7 5.5 82 -17.1 1.2
06:35 1022 30.18 851 25.13 -14.7 5.6 84 -16.9 1.6
06:40 1022 30.18 851 25.13 -14.6 5.7 85 -16.6 2.1
06:45 1022 30.18 851 25.13 -14.3 6.3 84 -16.4 2.4
06:50 1022 30.18 851 25.13 -14.3 6.4 83 -16.6 2.2
06:55 1022 30.18 851 25.13 -14.5 5.9 83 -16.8 1.8
07:00 1022 30.18 851 25.13 -14.6 5.7 85 -16.6 2.2
07:05 1022 30.18 852 25.16 -14.8 5.4 82 -17.2 1.1
07:10 1022 30.18 852 25.16 -15.5 4.1 81 -18 -0.4
07:15 1022 30.18 852 25.16 -16.3 2.7 83 -18.5 -1.3
07:20 1022 30.18 852 25.16 -16.5 2.2 87 -18.3 -0.9
07:25 1023 30.21 852 25.16 -16.3 2.7 88 -17.9 -0.2
07:30 1023 30.21 852 25.16 -16.2 2.9 87 -17.9 -0.2
07:35 1023 30.21 852 25.16 -16.1 3.1 87 -17.8 -0
07:40 1022 30.18 852 25.16 -16 3.2 88 -17.6 0.3
07:45 1022 30.18 852 25.16 -15.9 3.4 87 -17.6 0.4
07:50 1022 30.18 852 25.16 -16.3 2.7 87 -17.9 -0.3
07:55 1022 30.18 852 25.16 -16.6 2.1 88 -18.2 -0.7
08:00 1022 30.18 852 25.16 -16.6 2.1 89 -18 -0.5
08:05 1022 30.18 852 25.16 -16.6 2.2 89 -18 -0.3
08:10 1022 30.18 852 25.16 -16.1 3 91 -17.3 0.9
08:15 1022 30.18 852 25.16 -15.7 3.8 92 -16.7 2
08:20 1023 30.21 852 25.16 -14.8 5.4 90 -16.1 3.1
08:25 1023 30.21 852 25.16 -14.6 5.7 91 -15.9 3.5
08:30 1023 30.21 852 25.16 -14.7 5.6 87 -16.3 2.6
08:35 1023 30.21 852 25.16 -15.4 4.3 90 -16.7 1.9
08:40 1023 30.21 852 25.16 -15.5 4.2 90 -16.7 1.9
08:45 1023 30.21 852 25.16 -15.1 4.8 85 -17.1 1.3
08:50 1023 30.21 852 25.16 -15.3 4.5 82 -17.7 0.1
08:55 1023 30.21 852 25.16 -15.9 3.4 87 -17.6 0.3
09:00 1023 30.21 852 25.16 -15.8 3.6 84 -17.9 -0.2
09:05 1023 30.21 852 25.16 -15.4 4.3 86 -17.2 1
09:10 1023 30.21 852 25.16 -14.8 5.4 81 -17.4 0.7
09:15 1023 30.21 852 25.16 -14.8 5.3 79 -17.7 0.2
09:20 1023 30.21 852 25.16 -15 5.1 80 -17.8 0
09:25 1023 30.21 852 25.16 -14.5 5.9 77 -17.7 0.2
09:30 1023 30.21 852 25.16 -14.4 6.1 78 -17.4 0.7
09:35 1023 30.21 852 25.16 -14.2 6.4 79 -17.2 1.1
09:40 1023 30.21 852 25.16 -14.3 6.3 77 -17.5 0.4
09:45 1023 30.21 852 25.16 -13.6 7.5 73 -17.5 0.6
09:50 1023 30.21 852 25.16 -13.1 8.4 73 -17 1.4
09:55 1023 30.21 852 25.16 -12.7 9.2 71 -16.8 1.8
10:00 1023 30.21 852 25.16 -12.8 9.1 72 -16.9 1.6
10:05 1023 30.21 852 25.16 -12.8 9 72 -16.8 1.7
10:10 1023 30.21 852 25.16 -13.4 7.8 75 -16.9 1.5
10:15 1023 30.21 852 25.16 -13.6 7.6 76 -16.9 1.5
10:20 1023 30.21 852 25.16 -12.5 9.5 73 -16.3 2.6
10:25 1023 30.21 852 25.16 -12.1 10.2 72 -16.1 3
10:30 1023 30.21 852 25.16 -11.3 11.6 70 -15.7 3.7
10:35 1023 30.21 852 25.16 -10.4 13.3 68 -15.2 4.6
10:40 1023 30.21 852 25.16 -9.9 14.2 66 -15.1 4.8
10:45 1023 30.21 852 25.16 -9.9 14.2 65 -15.3 4.4
10:50 1023 30.21 852 25.16 -9.9 14.1 65 -15.3 4.4
10:55 1023 30.21 852 25.16 -9.7 14.6 64 -15.3 4.4
11:00 1023 30.21 852 25.16 -9.4 15.1 63 -15.2 4.6
11:05 1023 30.21 852 25.16 -9.3 15.3 62 -15.3 4.5
11:10 1023 30.21 852 25.16 -8.9 16 61 -15.2 4.7
11:15 1023 30.21 852 25.16 -8.7 16.4 58 -15.4 4.2
11:20 1023 30.21 852 25.16 -8.8 16.2 60 -15.2 4.7
11:25 1023 30.21 852 25.16 -9 15.8 61 -15.3 4.5
11:30 1023 30.21 852 25.16 -8.3 17.1 58 -15.2 4.7
11:35 1023 30.21 852 25.16 -8.1 17.4 57 -15.2 4.6
11:40 1023 30.21 852 25.16 -8.1 17.5 57 -15.1 4.8
11:45 1023 30.21 852 25.16 -7.8 17.9 57 -14.9 5.1
11:50 1023 30.21 852 25.16 -7.7 18.1 57 -14.8 5.3
11:55 1023 30.21 852 25.16 -7.3 18.8 56 -14.7 5.5
12:00 1023 30.21 852 25.16 -7 19.4 55 -14.7 5.5
12:05 1022 30.18 852 25.16 -7 19.5 57 -14.1 6.6
12:10 1022 30.18 852 25.16 -6.7 20 54 -14.4 6.1
12:15 1022 30.18 852 25.16 -6.5 20.2 54 -14.4 6
12:20 1022 30.18 852 25.16 -6.8 19.8 56 -14.2 6.4
12:25 1022 30.18 851 25.13 -7 19.4 54 -14.7 5.5
12:30 1022 30.18 851 25.13 -7 19.5 54 -14.8 5.4
12:35 1022 30.18 851 25.13 -7.6 18.3 56 -14.9 5.2
12:40 1022 30.18 851 25.13 -7.8 18.1 55 -15.3 4.5
12:45 1022 30.18 851 25.13 -7.1 19.3 54 -14.9 5.1
12:50 1022 30.18 851 25.13 -6.8 19.8 53 -14.9 5.1
12:55 1022 30.18 851 25.13 -6.5 20.3 51 -15 5.1
13:00 1022 30.18 851 25.13 -6.4 20.5 50 -15.2 4.7
13:05 1022 30.18 851 25.13 -6.7 20 51 -15.2 4.7
13:10 1022 30.18 851 25.13 -6.6 20.1 52 -14.9 5.2
13:15 1022 30.18 851 25.13 -7.1 19.1 51 -15.6 3.9
13:20 1022 30.18 851 25.13 -7.8 18 53 -15.9 3.5
13:25 1022 30.18 851 25.13 -8.1 17.5 55 -15.6 3.8
13:30 1022 30.18 851 25.13 -7.9 17.8 54 -15.7 3.8
13:35 1022 30.18 851 25.13 -7.7 18.2 54 -15.4 4.2
13:40 1022 30.18 851 25.13 -8.1 17.4 58 -15 5.1
13:45 1022 30.18 851 25.13 -8 17.5 59 -14.7 5.5
13:50 1022 30.18 851 25.13 -8.1 17.5 58 -15 4.9
13:55 1022 30.18 851 25.13 -8 17.7 54 -15.6 3.9
14:00 1022 30.18 851 25.13 -8.2 17.2 54 -15.9 3.3
14:05 1022 30.18 851 25.13 -8.5 16.6 54 -16.3 2.7
14:10 1022 30.18 851 25.13 -8.4 16.8 55 -16 3.2
14:15 1022 30.18 851 25.13 -7.9 17.8 55 -15.5 4.2
14:20 1021 30.15 851 25.13 -7.9 17.8 55 -15.4 4.2
14:25 1021 30.15 851 25.13 -7.7 18.1 56 -14.9 5.1
14:30 1021 30.15 851 25.13 -7.5 18.4 62 -13.7 7.4
14:35 1021 30.15 851 25.13 -7.7 18.2 62 -13.6 7.4
14:40 1021 30.15 851 25.13 -7.8 18 59 -14.4 6
14:45 1021 30.15 851 25.13 -7.9 17.8 61 -14.1 6.5
14:50 1021 30.15 851 25.13 -7.9 17.8 61 -14.2 6.4
14:55 1021 30.15 851 25.13 -8 17.6 64 -13.6 7.6
15:00 1021 30.15 851 25.13 -7.7 18.1 64 -13.5 7.8
15:05 1021 30.15 851 25.13 -7.8 17.9 64 -13.5 7.7
15:10 1021 30.15 851 25.13 -7.8 18 61 -14 6.9
15:15 1021 30.15 851 25.13 -7.7 18.2 62 -13.7 7.3
15:20 1021 30.15 851 25.13 -7.4 18.6 61 -13.8 7.2
15:25 1021 30.15 851 25.13 -7.5 18.6 61 -13.6 7.4
15:30 1021 30.15 851 25.13 -7.5 18.4 62 -13.6 7.5
15:35 1021 30.15 851 25.13 -7.2 19 57 -14.4 6.1
15:40 1021 30.15 851 25.13 -6.7 20 54 -14.5 5.9
15:45 1021 30.15 851 25.13 -6.6 20.2 56 -14.1 6.7
15:50 1021 30.15 851 25.13 -6.9 19.5 59 -13.7 7.4
15:55 1021 30.15 851 25.13 -7 19.3 59 -13.7 7.3
16:00 1021 30.15 851 25.13 -7.2 19 59 -13.9 6.9
16:05 1021 30.15 851 25.13 -7.2 19 59 -13.8 7.1
16:10 1021 30.15 851 25.13 -7.4 18.7 60 -13.8 7.1
16:15 1022 30.18 851 25.13 -7.5 18.5 63 -13.5 7.8
16:20 1022 30.18 851 25.13 -7.8 18 65 -13.3 8
16:25 1022 30.18 851 25.13 -8.1 17.5 66 -13.3 8
16:30 1021 30.15 851 25.13 -8.3 17.1 66 -13.6 7.5
16:35 1021 30.15 851 25.13 -8.5 16.7 63 -14.3 6.2
16:40 1021 30.15 851 25.13 -8.5 16.6 62 -14.5 5.8
16:45 1021 30.15 850 25.1 -8.6 16.5 63 -14.5 5.9
16:50 1021 30.15 850 25.1 -9.2 15.5 63 -15 5.1
16:55 1021 30.15 850 25.1 -8.9 16 58 -15.7 3.8
17:00 1021 30.15 850 25.1 -9.1 15.6 62 -15.2 4.7
17:05 1021 30.15 851 25.13 -9.6 14.7 64 -15.3 4.5
17:10 1021 30.15 851 25.13 -9.7 14.5 61 -15.9 3.4
17:15 1021 30.15 851 25.13 -9.7 14.5 53 -17.6 0.3
17:20 1021 30.15 851 25.13 -9.3 15.3 51 -17.6 0.4
17:25 1021 30.15 851 25.13 -8.8 16.1 48 -17.9 -0.1
17:30 1021 30.15 851 25.13 -8.3 17.1 49 -17.1 1.2
17:35 1021 30.15 851 25.13 -8.2 17.2 57 -15.4 4.3
17:40 1021 30.15 851 25.13 -8.6 16.5 64 -14.3 6.2
17:45 1021 30.15 851 25.13 -8.7 16.4 67 -13.7 7.3
17:50 1021 30.15 851 25.13 -8.8 16.1 70 -13.4 7.8
17:55 1021 30.15 851 25.13 -9.1 15.7 69 -13.8 7.2
18:00 1021 30.15 851 25.13 -9.4 15.1 70 -13.8 7.1
18:05 1021 30.15 850 25.1 -10.2 13.7 75 -13.9 7
18:10 1021 30.15 850 25.1 -10.4 13.2 78 -13.6 7.5
18:15 1021 30.15 850 25.1 -9.9 14.2 76 -13.4 7.8
18:20 1021 30.15 850 25.1 -9.2 15.5 66 -14.4 6.1
18:25 1021 30.15 850 25.1 -8.6 16.5 68 -13.5 7.7
18:30 1021 30.15 850 25.1 -8.5 16.8 68 -13.3 8
18:35 1021 30.15 850 25.1 -8.6 16.5 71 -12.9 8.7
18:40 1021 30.15 850 25.1 -8.9 15.9 73 -13 8.6
18:45 1021 30.15 850 25.1 -9 15.8 67 -14 6.8
18:50 1021 30.15 850 25.1 -8.6 16.6 66 -13.7 7.3
18:55 1021 30.15 850 25.1 -8.5 16.7 65 -14 6.9
19:00 1021 30.15 850 25.1 -8.4 16.8 64 -14.1 6.6
19:05 1021 30.15 850 25.1 -8.2 17.2 64 -13.9 6.9
19:10 1021 30.15 850 25.1 -8.2 17.2 63 -14 6.7
19:15 1021 30.15 850 25.1 -8.1 17.4 63 -13.9 7
19:20 1021 30.15 850 25.1 -8.1 17.5 65 -13.6 7.5
19:25 1021 30.15 850 25.1 -8.2 17.3 67 -13.3 8
19:30 1021 30.15 851 25.13 -8.8 16.2 70 -13.3 8.1
19:35 1021 30.15 851 25.13 -9 15.9 73 -13 8.5
19:40 1021 30.15 851 25.13 -9 15.8 74 -12.8 8.9
19:45 1021 30.15 851 25.13 -8.9 15.9 71 -13.2 8.3
19:50 1021 30.15 851 25.13 -8.7 16.3 71 -13 8.6
19:55 1021 30.15 851 25.13 -8.6 16.6 73 -12.7 9.2
20:00 1021 30.15 851 25.13 -8.8 16.2 74 -12.6 9.4
20:05 1021 30.15 851 25.13 -9.2 15.5 75 -12.8 8.9
20:10 1022 30.18 851 25.13 -9.4 15 77 -12.8 9
20:15 1022 30.18 851 25.13 -9.5 14.9 73 -13.5 7.6
20:20 1021 30.15 851 25.13 -9.2 15.5 71 -13.4 7.8
20:25 1022 30.18 851 25.13 -8.8 16.2 72 -13 8.5
20:30 1022 30.18 851 25.13 -8.6 16.6 72 -12.8 9
20:35 1022 30.18 851 25.13 -8.6 16.4 74 -12.5 9.6
20:40 1022 30.18 851 25.13 -8.9 15.9 75 -12.6 9.4
20:45 1022 30.18 851 25.13 -9.4 15.2 77 -12.7 9.1
20:50 1022 30.18 851 25.13 -9.6 14.8 76 -13 8.6
20:55 1022 30.18 851 25.13 -9.8 14.4 75 -13.3 8
21:00 1022 30.18 851 25.13 -9.8 14.4 74 -13.5 7.6
21:05 1022 30.18 851 25.13 -9.8 14.4 73 -13.7 7.3
21:10 1022 30.18 851 25.13 -9.8 14.4 72 -13.9 7.1
21:15 1022 30.18 851 25.13 -9.7 14.5 71 -14 6.8
21:20 1022 30.18 851 25.13 -9.8 14.3 72 -14.1 6.7
21:25 1022 30.18 851 25.13 -9.9 14.2 70 -14.3 6.3
21:30 1022 30.18 851 25.13 -9.8 14.4 70 -14.3 6.3
21:35 1022 30.18 851 25.13 -9.7 14.6 70 -14.2 6.4
21:40 1021 30.15 851 25.13 -9.6 14.8 68 -14.5 6
21:45 1021 30.15 851 25.13 -9.5 14.8 68 -14.4 6.1
21:50 1021 30.15 851 25.13 -9.5 15 68 -14.3 6.3
21:55 1021 30.15 851 25.13 -9.6 14.6 72 -13.8 7.2
22:00 1021 30.15 851 25.13 -9.9 14.2 73 -13.9 7
22:05 1021 30.15 851 25.13 -9.6 14.7 73 -13.6 7.5
22:10 1021 30.15 851 25.13 -9.9 14.2 74 -13.7 7.3
22:15 1021 30.15 851 25.13 -9.9 14.1 75 -13.6 7.5
22:20 1021 30.15 851 25.13 -10 14 75 -13.6 7.6
22:25 1021 30.15 851 25.13 -10.1 13.9 76 -13.5 7.8
22:30 1021 30.15 851 25.13 -10.2 13.7 74 -13.9 6.9
22:35 1021 30.15 851 25.13 -10.1 13.7 72 -14.3 6.3
22:40 1021 30.15 851 25.13 -10 14 73 -14 6.8
22:45 1021 30.15 851 25.13 -9.8 14.4 73 -13.7 7.4
22:50 1021 30.15 850 25.1 -9.6 14.7 71 -13.9 7
22:55 1021 30.15 851 25.13 -10.1 13.8 74 -13.9 7
23:00 1022 30.18 851 25.13 -10.1 13.9 70 -14.5 5.9
23:05 1022 30.18 851 25.13 -9.9 14.1 72 -14.1 6.6
23:10 1022 30.18 851 25.13 -9.5 14.9 71 -13.9 6.9
23:15 1021 30.15 851 25.13 -9.1 15.6 70 -13.6 7.5
23:20 1022 30.18 851 25.13 -9.1 15.7 69 -13.7 7.4
23:25 1022 30.18 851 25.13 -9.1 15.6 71 -13.5 7.8
23:30 1022 30.18 851 25.13 -9 15.8 68 -13.8 7.1
23:35 1022 30.18 851 25.13 -9.5 14.8 73 -13.6 7.6
23:40 1022 30.18 851 25.13 -9.7 14.5 75 -13.3 8
23:45 1021 30.15 851 25.13 -9.8 14.3 76 -13.4 7.9
23:50 1022 30.18 851 25.13 -9.8 14.4 76 -13.2 8.2
23:55 1022 30.18 851 25.13 -9.7 14.6 76 -13.1 8.4
24:00 1022 30.18 851 25.13 -9.2 15.4 75 -12.8 8.9